Sultana, California
Current Conditions -  °F | °C
As of 12:35 AM on Sunday 23 Nov 2014 (Local Time) from KVIS Reporting Station
Overcast Overcast  
Wind Chill: 52°   Ceiling: 1700
Heat Index: 52°   Visibility: 4mi
Dew Point: 46°   Wind: 3mph
Humidity: 82%   Direction: 270°W
Pressure: 30.18"   Gusts: NA
Location:  36.55°N, 119.34°W
Report Text: KVIS 230835Z 27003KT 4SM BKN017 OVC023 11/08 A3018 RMK AO1
Loading
Personal Weather Stations






























Interactive Weather Map New forecast layout! Learn more

10-Day Weather Forecast

Advertisements
Track Severe Weather on mobile